Time;durP1;ratioP1;P1;durP2;ratioP2;P2;SDS_P1;SDS_P2;PMS_P1;PMS_P2;Temp;Humidity;BMP_temperature;BMP_pressure;BME280_temperature;BME280_humidity;BME280_pressure;Samples;Min_cycle;Max_cycle;Signal;HPM_P1;HPM_P2
2024/01/04 00:01:16;;;;;;;12.35;6.18;;;;;;;;;;5019035;28;20793;-54
2024/01/04 00:03:42;;;;;;;11.82;6.38;;;;;;;;;;5020875;28;20029;-54
2024/01/04 00:06:07;;;;;;;10.23;6.38;;;;;;;;;;5019848;28;20035;-54
2024/01/04 00:08:32;;;;;;;13.00;6.45;;;;;;;;;;5019300;28;20765;-52
2024/01/04 00:10:58;;;;;;;18.80;6.30;;;;;;;;;;5025288;28;20020;-57
2024/01/04 00:13:24;;;;;;;16.20;7.03;;;;;;;;;;5019781;28;20414;-54
2024/01/04 00:15:49;;;;;;;18.00;7.35;;;;;;;;;;5022341;28;20080;-55
2024/01/04 00:18:14;;;;;;;19.08;7.22;;;;;;;;;;5020018;28;20414;-56
2024/01/04 00:20:40;;;;;;;24.20;7.40;;;;;;;;;;5025701;28;20017;-53
2024/01/04 00:23:05;;;;;;;20.92;7.93;;;;;;;;;;5017850;28;20037;-54
2024/01/04 00:25:30;;;;;;;25.45;9.15;;;;;;;;;;5019188;28;20037;-55
2024/01/04 00:27:56;;;;;;;15.15;6.78;;;;;;;;;;5020085;28;20025;-56
2024/01/04 00:30:21;;;;;;;17.92;6.75;;;;;;;;;;5018798;28;20571;-55
2024/01/04 00:32:46;;;;;;;13.50;6.38;;;;;;;;;;5011291;28;20393;-57
2024/01/04 00:35:11;;;;;;;16.85;6.75;;;;;;;;;;5042898;28;20183;-51
2024/01/04 00:37:37;;;;;;;16.73;6.90;;;;;;;;;;5053285;28;20044;-56
2024/01/04 00:40:02;;;;;;;10.82;6.32;;;;;;;;;;5041269;28;20561;-57
2024/01/04 00:42:27;;;;;;;19.70;7.32;;;;;;;;;;5039996;28;20107;-57
2024/01/04 00:44:52;;;;;;;14.82;6.95;;;;;;;;;;5041709;28;20143;-56
2024/01/04 00:47:18;;;;;;;18.00;8.07;;;;;;;;;;5042850;28;20492;-56
2024/01/04 00:49:43;;;;;;;16.40;7.18;;;;;;;;;;5027351;28;20107;-54
2024/01/04 00:52:08;;;;;;;12.80;7.55;;;;;;;;;;5041248;28;20033;-53
2024/01/04 00:54:34;;;;;;;17.75;7.75;;;;;;;;;;5041136;28;20033;-51
2024/01/04 00:56:59;;;;;;;24.15;7.15;;;;;;;;;;5041951;28;20028;-53
2024/01/04 00:59:24;;;;;;;19.70;8.32;;;;;;;;;;5041772;28;20240;-56
2024/01/04 01:01:49;;;;;;;15.02;7.00;;;;;;;;;;5041089;28;20893;-56
2024/01/04 01:04:15;;;;;;;18.38;7.68;;;;;;;;;;5040083;28;20032;-56
2024/01/04 01:06:40;;;;;;;24.25;7.90;;;;;;;;;;5029905;28;20044;-52
2024/01/04 01:09:05;;;;;;;23.02;8.05;;;;;;;;;;5023922;28;20020;-56
2024/01/04 01:11:30;;;;;;;14.13;7.55;;;;;;;;;;5022457;28;20033;-52
2024/01/04 01:13:56;;;;;;;20.75;7.43;;;;;;;;;;5024011;28;20028;-55
2024/01/04 01:16:21;;;;;;;17.73;7.32;;;;;;;;;;5021635;28;20021;-54
2024/01/04 01:18:46;;;;;;;14.30;6.45;;;;;;;;;;5024336;28;20708;-53
2024/01/04 01:21:11;;;;;;;19.17;7.13;;;;;;;;;;5025236;28;20094;-53
2024/01/04 01:23:37;;;;;;;15.38;7.00;;;;;;;;;;5024735;28;20028;-53
2024/01/04 01:26:02;;;;;;;17.55;6.88;;;;;;;;;;5023468;28;20532;-56
2024/01/04 01:28:28;;;;;;;16.65;6.88;;;;;;;;;;5021898;28;20417;-57
2024/01/04 01:30:53;;;;;;;15.40;6.63;;;;;;;;;;5019868;28;20047;-53
2024/01/04 01:33:19;;;;;;;11.25;6.13;;;;;;;;;;5023202;28;20060;-55
2024/01/04 01:35:44;;;;;;;14.80;6.65;;;;;;;;;;5024156;28;20029;-55
2024/01/04 01:38:10;;;;;;;14.32;6.35;;;;;;;;;;5025379;28;20493;-55
2024/01/04 01:40:35;;;;;;;17.80;6.55;;;;;;;;;;5021569;28;20029;-55
2024/01/04 01:43:00;;;;;;;18.10;6.50;;;;;;;;;;5022263;28;20075;-57
2024/01/04 01:45:26;;;;;;;15.75;6.95;;;;;;;;;;5029382;28;20024;-55
2024/01/04 01:47:51;;;;;;;13.30;7.57;;;;;;;;;;5022505;28;20155;-55
2024/01/04 01:50:20;;;;;;;18.70;6.95;;;;;;;;;;5022391;28;20551;-57
2024/01/04 01:52:46;;;;;;;16.40;7.70;;;;;;;;;;5022073;28;20052;-54
2024/01/04 01:55:13;;;;;;;14.65;7.35;;;;;;;;;;5022686;28;20533;-54
2024/01/04 01:57:38;;;;;;;14.90;6.93;;;;;;;;;;5022035;28;20036;-54
2024/01/04 02:00:04;;;;;;;13.38;6.88;;;;;;;;;;5025761;28;20043;-52
2024/01/04 02:02:29;;;;;;;18.85;7.53;;;;;;;;;;5022654;28;20033;-53
2024/01/04 02:04:55;;;;;;;19.85;7.10;;;;;;;;;;5021893;28;20060;-55
2024/01/04 02:07:20;;;;;;;10.95;6.60;;;;;;;;;;5021009;28;20048;-52
2024/01/04 02:09:45;;;;;;;17.88;7.72;;;;;;;;;;5023244;28;20075;-54
2024/01/04 02:12:13;;;;;;;14.98;6.80;;;;;;;;;;5022415;28;20033;-54
2024/01/04 02:14:38;;;;;;;19.48;7.60;;;;;;;;;;5023324;28;20466;-51
2024/01/04 02:17:04;;;;;;;18.15;7.65;;;;;;;;;;5020238;28;20029;-53
2024/01/04 02:19:30;;;;;;;20.38;8.15;;;;;;;;;;5022037;28;20049;-51
2024/01/04 02:21:55;;;;;;;18.02;7.28;;;;;;;;;;5026568;28;20588;-54
2024/01/04 02:24:20;;;;;;;18.30;7.60;;;;;;;;;;5021806;28;20503;-57
2024/01/04 02:26:46;;;;;;;17.65;6.78;;;;;;;;;;5021298;28;20029;-55
2024/01/04 02:29:11;;;;;;;18.42;7.63;;;;;;;;;;5021009;28;20033;-54
2024/01/04 02:31:36;;;;;;;18.30;8.15;;;;;;;;;;5022373;28;20025;-51
2024/01/04 02:34:02;;;;;;;17.27;7.05;;;;;;;;;;5022919;28;20436;-55
2024/01/04 02:36:27;;;;;;;18.95;7.20;;;;;;;;;;5021846;28;20142;-56
2024/01/04 02:38:52;;;;;;;21.63;7.65;;;;;;;;;;5020541;28;20048;-55
2024/01/04 02:41:17;;;;;;;19.13;7.18;;;;;;;;;;5019620;28;20413;-54
2024/01/04 02:43:43;;;;;;;14.27;6.57;;;;;;;;;;5026523;28;20044;-56
2024/01/04 02:46:08;;;;;;;13.43;6.63;;;;;;;;;;5022959;28;20032;-55
2024/01/04 02:48:33;;;;;;;19.33;7.15;;;;;;;;;;5020131;28;20037;-52
2024/01/04 02:50:58;;;;;;;18.33;6.80;;;;;;;;;;5020290;28;20055;-52
2024/01/04 02:53:24;;;;;;;12.18;6.25;;;;;;;;;;5020006;28;20603;-55
2024/01/04 02:55:49;;;;;;;12.38;6.65;;;;;;;;;;5022323;28;20039;-51
2024/01/04 02:58:14;;;;;;;13.05;6.53;;;;;;;;;;5019542;28;20021;-53
2024/01/04 03:00:40;;;;;;;11.70;6.40;;;;;;;;;;5022682;28;20407;-56
2024/01/04 03:03:05;;;;;;;17.77;6.97;;;;;;;;;;5022534;28;20103;-52
2024/01/04 03:05:30;;;;;;;15.68;6.50;;;;;;;;;;5021857;28;20028;-56
2024/01/04 03:07:55;;;;;;;13.30;5.78;;;;;;;;;;5013686;28;20157;-55
2024/01/04 03:10:21;;;;;;;15.32;6.68;;;;;;;;;;5022065;28;20097;-57
2024/01/04 03:12:46;;;;;;;11.77;5.72;;;;;;;;;;5020750;28;20021;-55
2024/01/04 03:15:12;;;;;;;17.92;6.95;;;;;;;;;;5020087;28;20171;-55
2024/01/04 03:17:37;;;;;;;15.63;6.35;;;;;;;;;;5022897;28;20113;-55
2024/01/04 03:20:04;;;;;;;13.85;6.57;;;;;;;;;;5020369;28;20053;-56
2024/01/04 03:22:29;;;;;;;10.13;5.78;;;;;;;;;;5019474;28;20232;-53
2024/01/04 03:24:54;;;;;;;10.90;5.63;;;;;;;;;;5020548;28;20029;-55
2024/01/04 03:27:20;;;;;;;15.27;5.35;;;;;;;;;;5021925;28;20102;-54
2024/01/04 03:29:45;;;;;;;17.33;5.40;;;;;;;;;;5022126;28;20089;-56
2024/01/04 03:32:10;;;;;;;9.80;5.07;;;;;;;;;;5019789;28;20053;-55
2024/01/04 03:34:35;;;;;;;16.33;5.80;;;;;;;;;;5020014;28;20056;-57
2024/01/04 03:37:01;;;;;;;13.20;5.45;;;;;;;;;;5019963;28;20674;-57
2024/01/04 03:39:26;;;;;;;13.68;5.72;;;;;;;;;;5021815;28;20520;-56
2024/01/04 03:41:51;;;;;;;15.35;4.85;;;;;;;;;;5019131;28;20041;-53
2024/01/04 03:44:16;;;;;;;14.45;5.55;;;;;;;;;;5020422;28;20032;-54
2024/01/04 03:46:42;;;;;;;11.55;5.20;;;;;;;;;;5025066;28;20024;-56
2024/01/04 03:49:07;;;;;;;9.80;5.00;;;;;;;;;;5021825;28;20079;-52
2024/01/04 03:51:32;;;;;;;15.02;4.80;;;;;;;;;;5021186;28;20048;-54
2024/01/04 03:53:58;;;;;;;8.52;4.90;;;;;;;;;;5022043;28;20478;-55
2024/01/04 03:56:23;;;;;;;13.40;4.63;;;;;;;;;;5019347;28;20026;-54
2024/01/04 03:58:49;;;;;;;13.38;5.53;;;;;;;;;;5020832;28;20045;-56
2024/01/04 04:01:14;;;;;;;16.05;5.32;;;;;;;;;;5018466;28;20424;-54
2024/01/04 04:03:39;;;;;;;12.52;4.90;;;;;;;;;;5020090;28;20346;-55
2024/01/04 04:06:06;;;;;;;10.50;4.60;;;;;;;;;;5041682;28;20648;-54
2024/01/04 04:08:31;;;;;;;12.65;4.85;;;;;;;;;;5039268;28;20059;-56
2024/01/04 04:10:56;;;;;;;13.45;4.30;;;;;;;;;;5039766;28;20047;-52
2024/01/04 04:13:22;;;;;;;12.43;4.38;;;;;;;;;;5039561;28;20743;-57
2024/01/04 04:15:47;;;;;;;13.93;4.82;;;;;;;;;;5041912;28;20037;-55
2024/01/04 04:18:12;;;;;;;8.25;4.72;;;;;;;;;;5007270;28;20045;-54
2024/01/04 04:20:38;;;;;;;10.50;4.93;;;;;;;;;;5040497;28;20614;-56
2024/01/04 04:23:03;;;;;;;16.52;6.05;;;;;;;;;;5022507;28;20127;-56
2024/01/04 04:25:28;;;;;;;11.73;5.45;;;;;;;;;;5041901;28;20036;-54
2024/01/04 04:27:54;;;;;;;15.98;5.97;;;;;;;;;;5040114;28;20063;-54
2024/01/04 04:30:19;;;;;;;9.68;5.25;;;;;;;;;;5039948;28;20115;-55
2024/01/04 04:32:45;;;;;;;9.82;4.80;;;;;;;;;;5039348;28;20089;-56
2024/01/04 04:35:10;;;;;;;11.55;4.78;;;;;;;;;;5042939;28;20032;-51
2024/01/04 04:37:35;;;;;;;12.63;5.68;;;;;;;;;;5026763;28;20048;-56
2024/01/04 04:40:00;;;;;;;13.10;5.38;;;;;;;;;;5020501;28;20028;-54
2024/01/04 04:42:26;;;;;;;15.23;5.28;;;;;;;;;;5023503;28;20484;-55
2024/01/04 04:44:51;;;;;;;16.92;5.20;;;;;;;;;;5011570;28;20031;-53
2024/01/04 04:47:16;;;;;;;16.40;5.82;;;;;;;;;;5026974;28;20111;-54
2024/01/04 04:49:41;;;;;;;12.15;5.28;;;;;;;;;;5025207;28;20033;-54
2024/01/04 04:52:07;;;;;;;13.57;5.50;;;;;;;;;;5024363;28;20171;-54
2024/01/04 04:54:32;;;;;;;17.95;7.50;;;;;;;;;;5026198;28;20500;-56
2024/01/04 04:56:57;;;;;;;20.20;7.50;;;;;;;;;;5023887;28;20032;-57
2024/01/04 04:59:23;;;;;;;51.53;24.17;;;;;;;;;;5024759;28;20033;-55
2024/01/04 05:01:48;;;;;;;65.15;32.00;;;;;;;;;;5022831;28;20061;-57
2024/01/04 05:04:13;;;;;;;49.47;23.60;;;;;;;;;;5026363;28;20385;-56
2024/01/04 05:06:39;;;;;;;33.88;15.30;;;;;;;;;;5023846;28;20094;-57
2024/01/04 05:09:04;;;;;;;83.38;33.63;;;;;;;;;;5025072;28;20393;-56
2024/01/04 05:11:29;;;;;;;24.60;10.27;;;;;;;;;;5023496;28;20070;-56
2024/01/04 05:13:55;;;;;;;21.95;8.10;;;;;;;;;;5026217;28;20033;-53
2024/01/04 05:16:20;;;;;;;26.15;13.45;;;;;;;;;;5022404;28;20033;-55
2024/01/04 05:18:45;;;;;;;27.20;14.88;;;;;;;;;;5023745;28;22662;-57
2024/01/04 05:21:11;;;;;;;17.48;6.55;;;;;;;;;;5029527;28;20041;-54
2024/01/04 05:23:36;;;;;;;11.20;4.78;;;;;;;;;;5023210;28;20107;-54
2024/01/04 05:26:02;;;;;;;13.95;5.05;;;;;;;;;;5024132;28;20567;-54
2024/01/04 05:28:27;;;;;;;13.57;6.40;;;;;;;;;;5022169;28;20192;-57
2024/01/04 05:30:53;;;;;;;18.83;6.03;;;;;;;;;;5023884;28;20672;-56
2024/01/04 05:33:18;;;;;;;15.73;5.45;;;;;;;;;;5023275;28;20660;-57
2024/01/04 05:35:43;;;;;;;15.32;6.85;;;;;;;;;;5027706;28;20028;-56
2024/01/04 05:38:08;;;;;;;11.98;5.70;;;;;;;;;;5035278;28;20041;-55
2024/01/04 05:40:34;;;;;;;17.77;7.47;;;;;;;;;;5023172;28;20029;-55
2024/01/04 05:42:59;;;;;;;12.98;5.15;;;;;;;;;;5022095;28;20041;-57
2024/01/04 05:45:24;;;;;;;11.52;4.50;;;;;;;;;;5029626;28;20035;-56
2024/01/04 05:47:50;;;;;;;11.23;4.10;;;;;;;;;;5026244;28;20036;-56
2024/01/04 05:50:15;;;;;;;8.70;4.45;;;;;;;;;;5022732;28;20079;-57
2024/01/04 05:52:40;;;;;;;23.40;8.88;;;;;;;;;;5021919;28;20712;-56
2024/01/04 05:55:06;;;;;;;17.85;7.72;;;;;;;;;;5026361;28;20021;-57
2024/01/04 05:57:31;;;;;;;13.63;5.38;;;;;;;;;;5023190;28;20436;-52
2024/01/04 05:59:56;;;;;;;14.80;5.22;;;;;;;;;;5024011;28;20505;-57
2024/01/04 06:02:22;;;;;;;11.95;6.00;;;;;;;;;;5021974;28;20844;-56
2024/01/04 06:04:47;;;;;;;12.73;4.97;;;;;;;;;;5050937;28;20071;-55
2024/01/04 06:07:13;;;;;;;14.63;5.90;;;;;;;;;;5025698;28;20027;-57
2024/01/04 06:09:38;;;;;;;15.20;5.15;;;;;;;;;;5023279;28;20033;-55
2024/01/04 06:12:04;;;;;;;14.90;4.55;;;;;;;;;;5022544;28;20073;-56
2024/01/04 06:14:30;;;;;;;9.85;4.60;;;;;;;;;;5023488;28;20036;-53
2024/01/04 06:16:56;;;;;;;12.02;5.13;;;;;;;;;;5020808;28;20394;-58
2024/01/04 06:19:21;;;;;;;11.32;4.70;;;;;;;;;;5023513;28;20088;-58
2024/01/04 06:21:46;;;;;;;12.32;4.57;;;;;;;;;;5028942;28;20406;-58
2024/01/04 06:24:12;;;;;;;13.48;5.25;;;;;;;;;;5022179;28;20801;-58
2024/01/04 06:26:37;;;;;;;7.90;4.05;;;;;;;;;;5021981;28;20028;-55
2024/01/04 06:29:02;;;;;;;13.38;3.97;;;;;;;;;;5023425;28;20621;-57
2024/01/04 06:31:28;;;;;;;10.35;4.03;;;;;;;;;;5021106;28;20029;-55
2024/01/04 06:33:53;;;;;;;11.18;4.82;;;;;;;;;;5023419;28;20032;-57
2024/01/04 06:36:18;;;;;;;12.65;4.40;;;;;;;;;;5023773;28;20064;-57
2024/01/04 06:38:43;;;;;;;9.32;4.47;;;;;;;;;;5026383;28;20048;-55
2024/01/04 06:41:09;;;;;;;8.38;4.70;;;;;;;;;;5020376;28;20024;-57
2024/01/04 06:43:34;;;;;;;13.38;4.50;;;;;;;;;;5021880;28;20642;-56
2024/01/04 06:45:59;;;;;;;16.67;4.43;;;;;;;;;;5027438;28;20123;-56
2024/01/04 06:48:25;;;;;;;12.30;4.80;;;;;;;;;;5022272;28;20147;-54
2024/01/04 06:50:50;;;;;;;17.98;7.90;;;;;;;;;;5021810;28;20064;-56
2024/01/04 06:53:16;;;;;;;20.85;10.73;;;;;;;;;;5020476;28;22725;-55
2024/01/04 06:55:41;;;;;;;20.90;11.55;;;;;;;;;;5026562;28;20037;-57
2024/01/04 06:58:08;;;;;;;18.63;8.77;;;;;;;;;;5023755;28;20058;-52
2024/01/04 07:00:33;;;;;;;21.52;9.10;;;;;;;;;;5030131;28;20031;-55
2024/01/04 07:02:59;;;;;;;10.30;5.40;;;;;;;;;;5030154;28;20424;-57
2024/01/04 07:05:24;;;;;;;11.43;5.03;;;;;;;;;;5023302;28;20028;-57
2024/01/04 07:07:49;;;;;;;11.80;5.25;;;;;;;;;;5020383;28;20036;-56
2024/01/04 07:10:15;;;;;;;16.73;5.68;;;;;;;;;;5014669;28;20085;-58
2024/01/04 07:12:43;;;;;;;9.93;5.28;;;;;;;;;;5013253;28;20044;-55
2024/01/04 07:15:08;;;;;;;10.73;5.18;;;;;;;;;;5015311;28;20033;-54
2024/01/04 07:17:34;;;;;;;14.95;5.43;;;;;;;;;;5017728;28;20029;-56
2024/01/04 07:19:59;;;;;;;12.15;5.40;;;;;;;;;;5017137;28;20136;-57
2024/01/04 07:22:25;;;;;;;16.45;5.13;;;;;;;;;;5019744;28;20456;-55
2024/01/04 07:24:50;;;;;;;15.70;5.80;;;;;;;;;;5023856;28;20029;-57
2024/01/04 07:27:16;;;;;;;16.65;5.40;;;;;;;;;;5003012;28;20303;-57
2024/01/04 07:29:41;;;;;;;11.85;5.55;;;;;;;;;;5019754;28;20607;-58
2024/01/04 07:32:07;;;;;;;11.63;5.38;;;;;;;;;;5053192;28;20048;-59
2024/01/04 07:34:33;;;;;;;22.73;6.63;;;;;;;;;;5020860;28;20545;-57
2024/01/04 07:36:59;;;;;;;12.48;6.75;;;;;;;;;;5014973;28;20033;-52
2024/01/04 07:39:24;;;;;;;12.07;6.43;;;;;;;;;;5017939;28;20037;-52
2024/01/04 07:41:50;;;;;;;19.25;6.72;;;;;;;;;;5013905;28;20033;-56
2024/01/04 07:44:16;;;;;;;22.85;6.20;;;;;;;;;;5020113;28;20056;-55
2024/01/04 07:46:41;;;;;;;17.40;5.82;;;;;;;;;;5019187;28;20059;-54
2024/01/04 07:49:10;;;;;;;12.13;5.95;;;;;;;;;;5019685;28;20086;-57
2024/01/04 07:51:35;;;;;;;17.35;6.93;;;;;;;;;;5017148;28;20021;-57
2024/01/04 07:54:00;;;;;;;15.57;7.00;;;;;;;;;;5016964;28;20227;-53
2024/01/04 07:56:26;;;;;;;14.27;6.15;;;;;;;;;;5020496;28;20552;-52
2024/01/04 07:58:51;;;;;;;15.52;6.35;;;;;;;;;;5020948;28;21196;-55
2024/01/04 08:01:17;;;;;;;14.25;4.70;;;;;;;;;;5027866;28;20564;-56
2024/01/04 08:03:42;;;;;;;13.48;5.45;;;;;;;;;;5027655;28;20298;-55
2024/01/04 08:06:08;;;;;;;14.77;5.40;;;;;;;;;;5021187;28;20027;-60
2024/01/04 08:08:33;;;;;;;11.23;5.25;;;;;;;;;;5020305;28;20557;-56
2024/01/04 08:11:01;;;;;;;9.68;4.68;;;;;;;;;;5021258;28;20033;-56
2024/01/04 08:13:26;;;;;;;10.88;4.90;;;;;;;;;;5020824;28;21779;-56
2024/01/04 08:15:51;;;;;;;15.23;4.85;;;;;;;;;;5022284;28;20021;-53
2024/01/04 08:18:17;;;;;;;9.93;5.03;;;;;;;;;;5021561;28;20056;-54
2024/01/04 08:20:43;;;;;;;10.43;4.32;;;;;;;;;;5022176;28;20029;-52
2024/01/04 08:23:08;;;;;;;9.48;4.40;;;;;;;;;;5021816;28;20025;-54
2024/01/04 08:25:33;;;;;;;8.57;4.10;;;;;;;;;;5023921;28;20048;-55
2024/01/04 08:27:58;;;;;;;9.73;4.10;;;;;;;;;;5017059;28;20059;-57
2024/01/04 08:30:24;;;;;;;9.87;3.97;;;;;;;;;;5014929;28;20127;-55
2024/01/04 08:32:49;;;;;;;10.00;4.18;;;;;;;;;;5015682;28;20853;-56
2024/01/04 08:35:17;;;;;;;10.90;3.53;;;;;;;;;;5016038;28;20474;-56
2024/01/04 08:37:44;;;;;;;11.45;4.07;;;;;;;;;;5015095;28;20029;-57
2024/01/04 08:40:09;;;;;;;9.00;3.90;;;;;;;;;;5015673;28;20036;-56
2024/01/04 08:42:34;;;;;;;8.02;3.47;;;;;;;;;;5009360;28;20041;-53
2024/01/04 08:45:00;;;;;;;9.43;3.50;;;;;;;;;;5017048;28;20119;-54
2024/01/04 08:47:25;;;;;;;9.70;3.75;;;;;;;;;;5014524;28;20627;-57
2024/01/04 08:49:50;;;;;;;8.15;3.17;;;;;;;;;;5009118;28;20493;-56
2024/01/04 08:52:16;;;;;;;7.38;3.17;;;;;;;;;;5008976;28;20025;-57
2024/01/04 08:54:41;;;;;;;7.97;3.20;;;;;;;;;;5017682;28;20819;-57
2024/01/04 08:57:07;;;;;;;7.90;3.60;;;;;;;;;;5017431;28;20254;-58
2024/01/04 08:59:33;;;;;;;8.38;4.00;;;;;;;;;;5055875;28;20436;-57
2024/01/04 09:01:58;;;;;;;6.05;3.85;;;;;;;;;;5022530;28;20293;-56
2024/01/04 09:04:24;;;;;;;9.98;3.53;;;;;;;;;;5001421;28;20474;-59
2024/01/04 09:06:49;;;;;;;6.78;3.45;;;;;;;;;;5022564;28;20090;-56
2024/01/04 09:09:14;;;;;;;12.30;3.63;;;;;;;;;;5024403;28;20021;-58
2024/01/04 09:11:41;;;;;;;9.48;3.30;;;;;;;;;;5023048;28;20762;-56
2024/01/04 09:14:11;;;;;;;11.05;3.08;;;;;;;;;;5024697;28;20037;-59
2024/01/04 09:16:36;;;;;;;7.55;2.95;;;;;;;;;;5021559;28;20423;-58
2024/01/04 09:19:02;;;;;;;8.90;3.30;;;;;;;;;;5021348;28;20055;-59
2024/01/04 09:21:27;;;;;;;6.77;2.90;;;;;;;;;;5024192;28;20155;-57
2024/01/04 09:23:52;;;;;;;7.23;2.67;;;;;;;;;;5016726;28;20969;-61
2024/01/04 09:26:18;;;;;;;7.20;2.42;;;;;;;;;;5060400;27;20274;-56
2024/01/04 09:28:43;;;;;;;9.30;2.85;;;;;;;;;;5014507;28;20810;-61
2024/01/04 09:31:08;;;;;;;10.75;2.30;;;;;;;;;;5021586;28;20461;-60
2024/01/04 09:33:34;;;;;;;4.28;2.00;;;;;;;;;;5020992;28;20021;-57
2024/01/04 09:36:00;;;;;;;6.25;2.10;;;;;;;;;;5016926;28;20050;-58
2024/01/04 09:38:25;;;;;;;9.23;2.63;;;;;;;;;;5019173;28;20044;-58
2024/01/04 09:40:51;;;;;;;5.90;2.42;;;;;;;;;;5022202;28;20049;-61
2024/01/04 09:43:17;;;;;;;5.07;2.80;;;;;;;;;;5020739;28;20029;-59
2024/01/04 09:45:43;;;;;;;8.65;2.70;;;;;;;;;;5028150;28;20016;-58
2024/01/04 09:48:10;;;;;;;5.70;2.22;;;;;;;;;;5021144;28;20445;-55
2024/01/04 09:50:37;;;;;;;7.88;3.03;;;;;;;;;;5023035;28;20139;-55
2024/01/04 09:53:03;;;;;;;9.13;2.60;;;;;;;;;;5023034;28;20028;-55
2024/01/04 09:55:29;;;;;;;8.60;2.47;;;;;;;;;;5015381;28;20021;-60
2024/01/04 09:57:54;;;;;;;7.13;3.55;;;;;;;;;;5018991;28;20029;-58
2024/01/04 10:00:20;;;;;;;17.17;3.95;;;;;;;;;;5016861;28;20086;-54
2024/01/04 10:02:45;;;;;;;15.02;3.22;;;;;;;;;;5013443;28;20041;-48
2024/01/04 10:05:15;;;;;;;9.23;3.10;;;;;;;;;;5015784;28;20120;-52
2024/01/04 10:07:43;;;;;;;9.30;2.85;;;;;;;;;;5004908;28;20266;-49
2024/01/04 10:10:13;;;;;;;6.93;2.38;;;;;;;;;;5012061;28;20033;-53
2024/01/04 10:12:40;;;;;;;8.60;2.72;;;;;;;;;;5010005;28;20230;-52
2024/01/04 10:15:07;;;;;;;8.52;2.42;;;;;;;;;;5011151;28;20025;-50
2024/01/04 10:17:33;;;;;;;9.10;2.58;;;;;;;;;;5009335;28;20066;-51
2024/01/04 10:19:59;;;;;;;4.60;1.80;;;;;;;;;;5011063;28;20049;-55
2024/01/04 10:22:24;;;;;;;9.02;2.03;;;;;;;;;;5010752;28;20037;-57
2024/01/04 10:24:51;;;;;;;3.57;1.77;;;;;;;;;;5010628;28;20152;-53
2024/01/04 10:27:16;;;;;;;4.20;1.95;;;;;;;;;;5012843;28;20258;-58
2024/01/04 10:29:44;;;;;;;13.88;2.85;;;;;;;;;;5022076;28;20408;-54
2024/01/04 10:32:11;;;;;;;8.63;2.87;;;;;;;;;;5019186;28;20102;-57
2024/01/04 10:34:37;;;;;;;5.93;3.05;;;;;;;;;;5022439;28;20056;-56
2024/01/04 10:37:12;;;;;;;10.10;4.32;;;;;;;;;;5021068;28;20020;-57
2024/01/04 10:39:38;;;;;;;6.18;2.33;;;;;;;;;;5025926;28;20032;-56
2024/01/04 10:42:05;;;;;;;5.38;2.00;;;;;;;;;;5020101;28;20457;-56
2024/01/04 10:44:33;;;;;;;3.03;1.30;;;;;;;;;;5025433;28;20063;-56
2024/01/04 10:46:59;;;;;;;5.03;1.73;;;;;;;;;;5024189;28;21729;-57
2024/01/04 10:49:25;;;;;;;2.75;1.20;;;;;;;;;;5021536;28;20488;-58
2024/01/04 10:51:51;;;;;;;2.13;1.42;;;;;;;;;;5021963;28;20035;-58
2024/01/04 10:54:17;;;;;;;3.45;1.00;;;;;;;;;;5022896;28;20033;-58
2024/01/04 10:56:43;;;;;;;1.55;0.73;;;;;;;;;;5020638;28;20065;-55
2024/01/04 10:59:09;;;;;;;1.15;0.70;;;;;;;;;;5020026;28;20048;-58
2024/01/04 11:01:35;;;;;;;3.40;0.85;;;;;;;;;;5020017;28;21592;-57
2024/01/04 11:04:01;;;;;;;3.90;1.25;;;;;;;;;;5020782;28;20134;-55
2024/01/04 11:06:28;;;;;;;4.20;1.27;;;;;;;;;;5021203;28;20087;-56
2024/01/04 11:08:57;;;;;;;6.53;1.42;;;;;;;;;;5020483;28;20603;-59
2024/01/04 11:11:24;;;;;;;3.45;1.70;;;;;;;;;;5019844;28;20095;-56
2024/01/04 11:13:49;;;;;;;4.45;1.63;;;;;;;;;;5017610;28;20029;-58
2024/01/04 11:16:26;;;;;;;4.07;1.30;;;;;;;;;;5018337;28;20669;-60
2024/01/04 11:18:56;;;;;;;4.85;1.83;;;;;;;;;;5014583;28;20513;-58
2024/01/04 11:21:31;;;;;;;4.40;1.73;;;;;;;;;;5010861;28;20349;-58
2024/01/04 11:24:02;;;;;;;18.00;2.40;;;;;;;;;;5009275;28;20020;-60
2024/01/04 11:26:33;;;;;;;2.50;1.60;;;;;;;;;;5022599;28;20021;-57
2024/01/04 11:28:59;;;;;;;3.83;1.52;;;;;;;;;;5026228;28;20385;-54
2024/01/04 11:31:25;;;;;;;5.00;1.67;;;;;;;;;;5020434;28;20029;-56
2024/01/04 11:33:50;;;;;;;7.70;2.70;;;;;;;;;;5023482;28;20033;-59
2024/01/04 11:36:16;;;;;;;5.25;2.08;;;;;;;;;;5019804;28;20462;-60
2024/01/04 11:38:44;;;;;;;6.25;2.38;;;;;;;;;;5030503;28;20037;-59
2024/01/04 11:41:09;;;;;;;3.53;2.05;;;;;;;;;;5028298;28;20031;-57
2024/01/04 11:43:35;;;;;;;3.97;2.20;;;;;;;;;;5021060;28;20021;-58
2024/01/04 11:46:01;;;;;;;8.23;3.70;;;;;;;;;;5023864;28;20261;-61
2024/01/04 11:48:27;;;;;;;10.30;4.83;;;;;;;;;;5022401;28;20232;-61
2024/01/04 11:50:52;;;;;;;13.40;3.25;;;;;;;;;;5020968;28;20622;-58
2024/01/04 11:53:18;;;;;;;6.27;2.80;;;;;;;;;;5002781;28;20045;-58
2024/01/04 11:55:44;;;;;;;9.10;2.60;;;;;;;;;;5020933;28;20273;-60
2024/01/04 11:58:11;;;;;;;4.90;2.15;;;;;;;;;;5022782;28;20751;-59
2024/01/04 12:00:37;;;;;;;9.40;2.65;;;;;;;;;;5021736;28;20856;-57
2024/01/04 12:03:21;;;;;;;4.63;2.30;;;;;;;;;;5019214;28;20055;-58
2024/01/04 12:05:51;;;;;;;9.63;3.67;;;;;;;;;;5019708;28;20033;-58
2024/01/04 12:08:30;;;;;;;8.68;2.70;;;;;;;;;;5017704;28;20414;-58
2024/01/04 12:10:57;;;;;;;7.95;2.33;;;;;;;;;;5021854;28;20067;-59
2024/01/04 12:13:23;;;;;;;5.55;3.03;;;;;;;;;;5017863;28;20060;-59
2024/01/04 12:15:49;;;;;;;5.68;3.58;;;;;;;;;;5016053;28;20047;-57
2024/01/04 12:18:14;;;;;;;8.30;3.97;;;;;;;;;;5013642;28;20380;-57
2024/01/04 12:20:39;;;;;;;7.93;2.67;;;;;;;;;;5012921;28;20032;-59
2024/01/04 12:23:06;;;;;;;7.05;2.97;;;;;;;;;;5012821;28;20029;-56
2024/01/04 12:25:35;;;;;;;8.98;3.63;;;;;;;;;;5016758;28;20722;-56
2024/01/04 12:28:01;;;;;;;10.43;2.83;;;;;;;;;;5014420;28;20029;-60
2024/01/04 12:30:27;;;;;;;7.00;3.40;;;;;;;;;;5014971;28;20068;-58
2024/01/04 12:32:52;;;;;;;8.43;3.08;;;;;;;;;;5014117;28;20033;-57
2024/01/04 12:35:17;;;;;;;6.03;2.80;;;;;;;;;;5014592;28;20021;-59
2024/01/04 12:37:42;;;;;;;6.68;3.13;;;;;;;;;;5017240;28;20742;-59
2024/01/04 12:40:08;;;;;;;8.80;3.33;;;;;;;;;;5020863;28;20090;-55
2024/01/04 12:42:34;;;;;;;5.47;2.75;;;;;;;;;;5014915;28;20540;-59
2024/01/04 12:44:59;;;;;;;7.10;2.88;;;;;;;;;;5020273;28;20040;-59
2024/01/04 12:47:25;;;;;;;8.15;2.40;;;;;;;;;;5020282;28;20052;-57
2024/01/04 12:49:54;;;;;;;5.43;2.70;;;;;;;;;;5018702;28;20425;-56
2024/01/04 12:52:19;;;;;;;8.07;2.47;;;;;;;;;;5024150;28;20037;-57
2024/01/04 12:54:45;;;;;;;7.93;2.40;;;;;;;;;;5020099;28;20029;-56
2024/01/04 12:57:10;;;;;;;6.93;2.30;;;;;;;;;;5015423;28;23949;-59
2024/01/04 12:59:37;;;;;;;6.03;2.73;;;;;;;;;;5014551;28;20437;-58
2024/01/04 13:02:03;;;;;;;4.25;2.05;;;;;;;;;;5045299;28;20258;-59
2024/01/04 13:04:29;;;;;;;4.45;2.10;;;;;;;;;;5021214;28;20388;-58
2024/01/04 13:06:54;;;;;;;5.28;2.22;;;;;;;;;;5020129;28;20025;-56
2024/01/04 13:09:19;;;;;;;3.20;2.03;;;;;;;;;;5021801;28;20147;-60
2024/01/04 13:11:44;;;;;;;8.55;2.63;;;;;;;;;;5017376;28;20032;-58
2024/01/04 13:14:11;;;;;;;9.02;3.90;;;;;;;;;;5020663;28;20404;-53
2024/01/04 13:16:36;;;;;;;14.68;5.68;;;;;;;;;;5020288;28;20037;-58
2024/01/04 13:19:01;;;;;;;9.93;3.85;;;;;;;;;;5020572;28;20199;-57
2024/01/04 13:21:27;;;;;;;10.00;4.00;;;;;;;;;;5017419;28;20436;-56
2024/01/04 13:23:52;;;;;;;8.00;2.92;;;;;;;;;;5018733;28;20025;-56
2024/01/04 13:26:18;;;;;;;5.32;2.42;;;;;;;;;;5017120;28;20116;-56
2024/01/04 13:28:43;;;;;;;5.50;2.72;;;;;;;;;;5017247;28;20032;-59
2024/01/04 13:31:10;;;;;;;5.07;2.67;;;;;;;;;;5020053;28;20029;-58
2024/01/04 13:33:35;;;;;;;11.10;3.60;;;;;;;;;;5017423;28;20036;-60
2024/01/04 13:36:00;;;;;;;8.07;2.55;;;;;;;;;;5020958;28;20029;-55
2024/01/04 13:38:26;;;;;;;5.53;2.67;;;;;;;;;;5017544;28;20018;-57
2024/01/04 13:40:52;;;;;;;3.75;1.85;;;;;;;;;;5017180;28;20406;-60
2024/01/04 13:43:17;;;;;;;5.90;2.40;;;;;;;;;;5014481;28;20040;-61
2024/01/04 13:45:43;;;;;;;9.50;3.45;;;;;;;;;;5023515;28;20021;-58
2024/01/04 13:48:08;;;;;;;7.45;2.72;;;;;;;;;;5017316;28;20036;-57
2024/01/04 13:50:33;;;;;;;6.45;2.85;;;;;;;;;;5017383;28;20045;-58
2024/01/04 13:53:00;;;;;;;11.40;5.03;;;;;;;;;;5014054;28;20041;-54
2024/01/04 13:55:26;;;;;;;15.52;7.57;;;;;;;;;;5018140;28;20707;-56
2024/01/04 13:57:51;;;;;;;8.13;4.28;;;;;;;;;;5016683;28;20024;-58
2024/01/04 14:00:16;;;;;;;6.70;3.37;;;;;;;;;;5017258;28;20036;-53
2024/01/04 14:02:42;;;;;;;9.25;3.15;;;;;;;;;;5019133;28;20314;-55
2024/01/04 14:05:08;;;;;;;7.75;3.05;;;;;;;;;;5020204;28;20024;-57
2024/01/04 14:07:34;;;;;;;8.02;2.70;;;;;;;;;;5019992;28;20025;-56
2024/01/04 14:09:59;;;;;;;7.75;4.20;;;;;;;;;;5021979;28;20261;-58
2024/01/04 14:12:24;;;;;;;4.60;2.70;;;;;;;;;;5019278;28;20037;-53
2024/01/04 14:14:50;;;;;;;9.40;2.20;;;;;;;;;;5020060;28;20270;-52
2024/01/04 14:17:15;;;;;;;3.97;2.35;;;;;;;;;;5021811;28;20261;-59
2024/01/04 14:19:40;;;;;;;9.00;2.97;;;;;;;;;;5021444;28;20049;-57
2024/01/04 14:22:05;;;;;;;9.07;2.87;;;;;;;;;;5020672;28;20285;-55
2024/01/04 14:24:32;;;;;;;9.80;2.40;;;;;;;;;;5017540;28;20759;-58
2024/01/04 14:26:57;;;;;;;4.22;2.00;;;;;;;;;;5021052;28;20269;-57